sensor_id;sensor_type;location;lat;lon;timestamp;pressure;altitude;pressure_sealevel;temperature;humidity
62864;BME280;48954;59.950;11.014;2024-03-02T00:00:50;99296.10;;;1.89;95.65
62864;BME280;48954;59.950;11.014;2024-03-02T00:03:57;99295.23;;;1.87;95.62
62864;BME280;48954;59.950;11.014;2024-03-02T00:06:42;99295.05;;;1.85;95.73
62864;BME280;48954;59.950;11.014;2024-03-02T00:09:22;99294.63;;;1.85;95.63
62864;BME280;48954;59.950;11.014;2024-03-02T00:12:10;99294.98;;;1.84;95.48
62864;BME280;48954;59.950;11.014;2024-03-02T00:14:56;99291.09;;;1.82;95.64
62864;BME280;48954;59.950;11.014;2024-03-02T00:17:27;99295.43;;;1.80;95.51
62864;BME280;48954;59.950;11.014;2024-03-02T00:20:20;99293.85;;;1.78;95.81
62864;BME280;48954;59.950;11.014;2024-03-02T00:23:21;99294.77;;;1.76;95.45
62864;BME280;48954;59.950;11.014;2024-03-02T00:25:55;99300.54;;;1.75;95.59
62864;BME280;48954;59.950;11.014;2024-03-02T00:32:23;99289.49;;;1.74;95.77
62864;BME280;48954;59.950;11.014;2024-03-02T00:35:23;99295.69;;;1.74;95.68
62864;BME280;48954;59.950;11.014;2024-03-02T00:37:52;99299.96;;;1.75;95.86
62864;BME280;48954;59.950;11.014;2024-03-02T00:40:19;99302.44;;;1.75;95.76
62864;BME280;48954;59.950;11.014;2024-03-02T00:43:01;99304.55;;;1.75;95.80
62864;BME280;48954;59.950;11.014;2024-03-02T00:45:39;99304.41;;;1.74;95.64
62864;BME280;48954;59.950;11.014;2024-03-02T00:48:06;99310.38;;;1.74;95.65
62864;BME280;48954;59.950;11.014;2024-03-02T00:50:36;99312.93;;;1.74;95.75
62864;BME280;48954;59.950;11.014;2024-03-02T00:53:04;99315.52;;;1.73;95.82
62864;BME280;48954;59.950;11.014;2024-03-02T00:55:40;99310.43;;;1.72;95.93
62864;BME280;48954;59.950;11.014;2024-03-02T00:58:20;99311.23;;;1.72;96.01
62864;BME280;48954;59.950;11.014;2024-03-02T01:01:00;99309.00;;;1.73;95.69
62864;BME280;48954;59.950;11.014;2024-03-02T01:06:56;99316.92;;;1.75;96.10
62864;BME280;48954;59.950;11.014;2024-03-02T01:09:30;99312.77;;;1.74;95.85
62864;BME280;48954;59.950;11.014;2024-03-02T01:11:59;99311.58;;;1.72;95.68
62864;BME280;48954;59.950;11.014;2024-03-02T01:14:40;99308.19;;;1.71;95.86
62864;BME280;48954;59.950;11.014;2024-03-02T01:17:21;99307.01;;;1.70;95.74
62864;BME280;48954;59.950;11.014;2024-03-02T01:19:57;99310.52;;;1.71;95.75
62864;BME280;48954;59.950;11.014;2024-03-02T01:22:47;99314.77;;;1.69;95.97
62864;BME280;48954;59.950;11.014;2024-03-02T01:25:42;99311.87;;;1.68;95.95
62864;BME280;48954;59.950;11.014;2024-03-02T01:28:08;99309.43;;;1.67;95.78
62864;BME280;48954;59.950;11.014;2024-03-02T01:31:07;99301.07;;;1.66;96.00
62864;BME280;48954;59.950;11.014;2024-03-02T01:33:50;99302.81;;;1.65;95.85
62864;BME280;48954;59.950;11.014;2024-03-02T01:36:33;99305.40;;;1.64;95.96
62864;BME280;48954;59.950;11.014;2024-03-02T01:39:13;99302.77;;;1.63;96.17
62864;BME280;48954;59.950;11.014;2024-03-02T01:41:39;99307.16;;;1.62;95.99
62864;BME280;48954;59.950;11.014;2024-03-02T01:44:43;99309.72;;;1.62;96.23
62864;BME280;48954;59.950;11.014;2024-03-02T01:47:10;99308.61;;;1.63;96.10
62864;BME280;48954;59.950;11.014;2024-03-02T01:49:37;99310.55;;;1.63;96.01
62864;BME280;48954;59.950;11.014;2024-03-02T01:52:19;99311.73;;;1.64;96.05
62864;BME280;48954;59.950;11.014;2024-03-02T01:55:01;99313.75;;;1.64;96.08
62864;BME280;48954;59.950;11.014;2024-03-02T01:57:33;99318.85;;;1.64;96.15
62864;BME280;48954;59.950;11.014;2024-03-02T02:02:27;99317.17;;;1.65;96.36
62864;BME280;48954;59.950;11.014;2024-03-02T02:04:55;99313.98;;;1.65;96.32
62864;BME280;48954;59.950;11.014;2024-03-02T02:07:23;99309.59;;;1.66;96.19
62864;BME280;48954;59.950;11.014;2024-03-02T02:09:50;99312.87;;;1.66;96.22
62864;BME280;48954;59.950;11.014;2024-03-02T02:12:18;99316.70;;;1.65;95.98
62864;BME280;48954;59.950;11.014;2024-03-02T02:14:49;99315.36;;;1.67;96.14
62864;BME280;48954;59.950;11.014;2024-03-02T02:17:17;99317.22;;;1.68;96.28
62864;BME280;48954;59.950;11.014;2024-03-02T02:19:45;99322.15;;;1.70;95.97
62864;BME280;48954;59.950;11.014;2024-03-02T02:22:12;99322.64;;;1.71;96.24
62864;BME280;48954;59.950;11.014;2024-03-02T02:24:43;99328.92;;;1.72;96.18
62864;BME280;48954;59.950;11.014;2024-03-02T02:27:10;99328.14;;;1.73;96.00
62864;BME280;48954;59.950;11.014;2024-03-02T02:29:39;99329.37;;;1.71;96.19
62864;BME280;48954;59.950;11.014;2024-03-02T02:32:19;99330.71;;;1.70;95.95
62864;BME280;48954;59.950;11.014;2024-03-02T02:35:00;99328.77;;;1.69;95.92
62864;BME280;48954;59.950;11.014;2024-03-02T02:37:55;99326.05;;;1.68;96.03
62864;BME280;48954;59.950;11.014;2024-03-02T02:40:25;99326.63;;;1.69;96.09
62864;BME280;48954;59.950;11.014;2024-03-02T02:42:58;99326.36;;;1.70;96.15
62864;BME280;48954;59.950;11.014;2024-03-02T02:45:26;99323.66;;;1.70;96.23
62864;BME280;48954;59.950;11.014;2024-03-02T02:47:55;99322.80;;;1.72;95.99
62864;BME280;48954;59.950;11.014;2024-03-02T02:50:26;99322.20;;;1.72;95.97
62864;BME280;48954;59.950;11.014;2024-03-02T02:52:52;99321.21;;;1.72;96.00
62864;BME280;48954;59.950;11.014;2024-03-02T02:55:29;99323.42;;;1.73;95.98
62864;BME280;48954;59.950;11.014;2024-03-02T02:57:57;99326.13;;;1.73;96.04
62864;BME280;48954;59.950;11.014;2024-03-02T03:00:38;99331.21;;;1.74;96.11
62864;BME280;48954;59.950;11.014;2024-03-02T03:03:04;99335.27;;;1.74;96.09
62864;BME280;48954;59.950;11.014;2024-03-02T03:05:34;99336.67;;;1.75;95.86
62864;BME280;48954;59.950;11.014;2024-03-02T03:08:01;99347.05;;;1.76;95.93
62864;BME280;48954;59.950;11.014;2024-03-02T03:10:27;99351.85;;;1.77;96.07
62864;BME280;48954;59.950;11.014;2024-03-02T03:12:53;99355.94;;;1.78;95.95
62864;BME280;48954;59.950;11.014;2024-03-02T03:15:19;99356.35;;;1.79;96.19
62864;BME280;48954;59.950;11.014;2024-03-02T03:17:46;99357.26;;;1.80;96.08
62864;BME280;48954;59.950;11.014;2024-03-02T03:20:12;99362.48;;;1.81;96.01
62864;BME280;48954;59.950;11.014;2024-03-02T03:22:38;99363.05;;;1.80;95.84
62864;BME280;48954;59.950;11.014;2024-03-02T03:25:05;99362.20;;;1.80;96.02
62864;BME280;48954;59.950;11.014;2024-03-02T03:27:32;99364.58;;;1.80;95.75
62864;BME280;48954;59.950;11.014;2024-03-02T03:30:00;99361.77;;;1.79;95.95
62864;BME280;48954;59.950;11.014;2024-03-02T03:32:26;99359.79;;;1.78;95.85
62864;BME280;48954;59.950;11.014;2024-03-02T03:34:53;99360.50;;;1.75;95.68
62864;BME280;48954;59.950;11.014;2024-03-02T03:37:19;99363.62;;;1.75;95.71
62864;BME280;48954;59.950;11.014;2024-03-02T03:39:46;99361.23;;;1.72;95.77
62864;BME280;48954;59.950;11.014;2024-03-02T03:42:14;99357.91;;;1.69;95.60
62864;BME280;48954;59.950;11.014;2024-03-02T03:44:40;99353.06;;;1.66;95.65
62864;BME280;48954;59.950;11.014;2024-03-02T03:47:07;99353.02;;;1.64;95.67
62864;BME280;48954;59.950;11.014;2024-03-02T03:49:33;99351.29;;;1.63;95.82
62864;BME280;48954;59.950;11.014;2024-03-02T03:52:00;99350.36;;;1.63;95.73
62864;BME280;48954;59.950;11.014;2024-03-02T03:54:26;99355.23;;;1.64;95.76
62864;BME280;48954;59.950;11.014;2024-03-02T03:56:57;99358.14;;;1.64;95.83
62864;BME280;48954;59.950;11.014;2024-03-02T03:59:30;99359.14;;;1.65;95.83
62864;BME280;48954;59.950;11.014;2024-03-02T04:01:56;99361.19;;;1.66;96.07
62864;BME280;48954;59.950;11.014;2024-03-02T04:04:22;99363.81;;;1.67;96.06
62864;BME280;48954;59.950;11.014;2024-03-02T04:06:48;99363.55;;;1.68;96.09
62864;BME280;48954;59.950;11.014;2024-03-02T04:09:15;99366.55;;;1.70;95.92
62864;BME280;48954;59.950;11.014;2024-03-02T04:11:41;99369.02;;;1.71;95.97
62864;BME280;48954;59.950;11.014;2024-03-02T04:14:07;99368.41;;;1.71;95.90
62864;BME280;48954;59.950;11.014;2024-03-02T04:16:34;99370.02;;;1.72;95.97
62864;BME280;48954;59.950;11.014;2024-03-02T04:19:05;99374.99;;;1.73;95.92
62864;BME280;48954;59.950;11.014;2024-03-02T04:21:40;99372.83;;;1.73;95.75
62864;BME280;48954;59.950;11.014;2024-03-02T04:24:23;99373.41;;;1.73;95.71
62864;BME280;48954;59.950;11.014;2024-03-02T04:26:54;99372.96;;;1.74;95.87
62864;BME280;48954;59.950;11.014;2024-03-02T04:29:25;99371.39;;;1.73;95.76
62864;BME280;48954;59.950;11.014;2024-03-02T04:32:06;99374.74;;;1.74;95.96
62864;BME280;48954;59.950;11.014;2024-03-02T04:34:32;99373.38;;;1.75;96.00
62864;BME280;48954;59.950;11.014;2024-03-02T04:36:58;99372.11;;;1.75;96.07
62864;BME280;48954;59.950;11.014;2024-03-02T04:39:24;99370.59;;;1.76;96.09
62864;BME280;48954;59.950;11.014;2024-03-02T04:42:06;99372.25;;;1.76;95.88
62864;BME280;48954;59.950;11.014;2024-03-02T04:44:33;99373.29;;;1.76;96.02
62864;BME280;48954;59.950;11.014;2024-03-02T04:46:59;99376.66;;;1.76;96.23
62864;BME280;48954;59.950;11.014;2024-03-02T04:49:50;99377.75;;;1.78;96.24
62864;BME280;48954;59.950;11.014;2024-03-02T04:52:18;99373.48;;;1.77;96.00
62864;BME280;48954;59.950;11.014;2024-03-02T04:54:44;99378.27;;;1.79;95.87
62864;BME280;48954;59.950;11.014;2024-03-02T04:57:11;99377.64;;;1.80;95.96
62864;BME280;48954;59.950;11.014;2024-03-02T04:59:37;99374.11;;;1.81;96.00
62864;BME280;48954;59.950;11.014;2024-03-02T05:02:05;99371.89;;;1.82;95.97
62864;BME280;48954;59.950;11.014;2024-03-02T05:04:31;99370.10;;;1.82;96.00
62864;BME280;48954;59.950;11.014;2024-03-02T05:06:57;99379.02;;;1.82;96.02
62864;BME280;48954;59.950;11.014;2024-03-02T05:09:23;99383.27;;;1.82;95.96
62864;BME280;48954;59.950;11.014;2024-03-02T05:11:49;99388.48;;;1.82;96.10
62864;BME280;48954;59.950;11.014;2024-03-02T05:14:16;99392.59;;;1.82;96.06
62864;BME280;48954;59.950;11.014;2024-03-02T05:16:45;99393.80;;;1.83;96.18
62864;BME280;48954;59.950;11.014;2024-03-02T05:19:13;99387.84;;;1.83;96.09
62864;BME280;48954;59.950;11.014;2024-03-02T05:21:40;99385.20;;;1.83;96.20
62864;BME280;48954;59.950;11.014;2024-03-02T05:24:06;99387.39;;;1.82;96.02
62864;BME280;48954;59.950;11.014;2024-03-02T05:26:36;99383.79;;;1.79;96.12
62864;BME280;48954;59.950;11.014;2024-03-02T05:29:02;99382.64;;;1.78;96.05
62864;BME280;48954;59.950;11.014;2024-03-02T05:31:39;99385.11;;;1.76;96.20
62864;BME280;48954;59.950;11.014;2024-03-02T05:34:05;99385.38;;;1.74;96.20
62864;BME280;48954;59.950;11.014;2024-03-02T05:36:33;99388.69;;;1.74;96.28
62864;BME280;48954;59.950;11.014;2024-03-02T05:38:59;99384.69;;;1.71;96.16
62864;BME280;48954;59.950;11.014;2024-03-02T05:41:30;99388.98;;;1.71;96.28
62864;BME280;48954;59.950;11.014;2024-03-02T05:43:57;99391.11;;;1.70;96.49
62864;BME280;48954;59.950;11.014;2024-03-02T05:46:23;99393.59;;;1.70;96.47
62864;BME280;48954;59.950;11.014;2024-03-02T05:48:49;99395.13;;;1.70;96.26
62864;BME280;48954;59.950;11.014;2024-03-02T05:51:15;99387.29;;;1.69;96.35
62864;BME280;48954;59.950;11.014;2024-03-02T05:53:43;99382.43;;;1.68;96.09
62864;BME280;48954;59.950;11.014;2024-03-02T05:56:14;99378.86;;;1.66;96.23
62864;BME280;48954;59.950;11.014;2024-03-02T05:58:40;99375.19;;;1.66;96.38
62864;BME280;48954;59.950;11.014;2024-03-02T06:01:06;99380.73;;;1.65;96.40
62864;BME280;48954;59.950;11.014;2024-03-02T06:03:33;99383.11;;;1.65;96.55
62864;BME280;48954;59.950;11.014;2024-03-02T06:06:00;99383.77;;;1.65;96.50
62864;BME280;48954;59.950;11.014;2024-03-02T06:08:26;99389.02;;;1.65;96.63
62864;BME280;48954;59.950;11.014;2024-03-02T06:10:54;99403.45;;;1.65;96.46
62864;BME280;48954;59.950;11.014;2024-03-02T06:13:22;99409.34;;;1.66;96.49
62864;BME280;48954;59.950;11.014;2024-03-02T06:15:50;99407.98;;;1.66;96.76
62864;BME280;48954;59.950;11.014;2024-03-02T06:18:17;99412.55;;;1.68;96.69
62864;BME280;48954;59.950;11.014;2024-03-02T06:20:43;99413.35;;;1.68;96.88
62864;BME280;48954;59.950;11.014;2024-03-02T06:23:09;99411.90;;;1.69;96.60
62864;BME280;48954;59.950;11.014;2024-03-02T06:25:39;99410.89;;;1.70;96.81
62864;BME280;48954;59.950;11.014;2024-03-02T06:28:19;99406.35;;;1.69;96.59
62864;BME280;48954;59.950;11.014;2024-03-02T06:30:46;99401.80;;;1.68;96.50
62864;BME280;48954;59.950;11.014;2024-03-02T06:33:15;99403.00;;;1.69;96.81
62864;BME280;48954;59.950;11.014;2024-03-02T06:35:42;99407.90;;;1.71;96.82
62864;BME280;48954;59.950;11.014;2024-03-02T06:38:09;99411.42;;;1.70;96.77
62864;BME280;48954;59.950;11.014;2024-03-02T06:40:36;99416.31;;;1.70;96.90
62864;BME280;48954;59.950;11.014;2024-03-02T06:43:02;99415.43;;;1.71;96.85
62864;BME280;48954;59.950;11.014;2024-03-02T06:45:29;99419.90;;;1.72;96.74
62864;BME280;48954;59.950;11.014;2024-03-02T06:47:57;99420.64;;;1.73;96.85
62864;BME280;48954;59.950;11.014;2024-03-02T06:50:29;99422.55;;;1.75;96.85
62864;BME280;48954;59.950;11.014;2024-03-02T06:52:56;99424.41;;;1.77;96.90
62864;BME280;48954;59.950;11.014;2024-03-02T06:55:22;99426.75;;;1.79;96.68
62864;BME280;48954;59.950;11.014;2024-03-02T06:57:51;99426.47;;;1.79;96.94
62864;BME280;48954;59.950;11.014;2024-03-02T07:00:18;99428.67;;;1.80;96.83
62864;BME280;48954;59.950;11.014;2024-03-02T07:02:47;99431.59;;;1.81;96.57
62864;BME280;48954;59.950;11.014;2024-03-02T07:05:14;99432.61;;;1.81;96.75
62864;BME280;48954;59.950;11.014;2024-03-02T07:07:40;99436.34;;;1.82;96.74
62864;BME280;48954;59.950;11.014;2024-03-02T07:10:07;99439.66;;;1.81;96.70
62864;BME280;48954;59.950;11.014;2024-03-02T07:12:33;99445.53;;;1.81;96.67
62864;BME280;48954;59.950;11.014;2024-03-02T07:15:03;99445.87;;;1.80;96.61
62864;BME280;48954;59.950;11.014;2024-03-02T07:17:30;99442.18;;;1.77;96.55
62864;BME280;48954;59.950;11.014;2024-03-02T07:19:59;99444.77;;;1.75;96.63
62864;BME280;48954;59.950;11.014;2024-03-02T07:22:27;99445.66;;;1.75;96.55
62864;BME280;48954;59.950;11.014;2024-03-02T07:24:57;99441.85;;;1.73;96.53
62864;BME280;48954;59.950;11.014;2024-03-02T07:27:30;99444.90;;;1.72;96.57
62864;BME280;48954;59.950;11.014;2024-03-02T07:29:57;99443.88;;;1.72;96.73
62864;BME280;48954;59.950;11.014;2024-03-02T07:32:25;99449.51;;;1.72;96.93
62864;BME280;48954;59.950;11.014;2024-03-02T07:34:51;99452.11;;;1.72;96.76
62864;BME280;48954;59.950;11.014;2024-03-02T07:37:17;99456.59;;;1.73;96.82
62864;BME280;48954;59.950;11.014;2024-03-02T07:39:44;99460.39;;;1.73;96.89
62864;BME280;48954;59.950;11.014;2024-03-02T07:42:10;99459.60;;;1.74;97.05
62864;BME280;48954;59.950;11.014;2024-03-02T07:44:37;99460.34;;;1.75;96.82
62864;BME280;48954;59.950;11.014;2024-03-02T07:47:06;99458.44;;;1.76;96.78
62864;BME280;48954;59.950;11.014;2024-03-02T07:49:33;99462.23;;;1.75;96.96
62864;BME280;48954;59.950;11.014;2024-03-02T07:52:12;99459.33;;;1.77;96.93
62864;BME280;48954;59.950;11.014;2024-03-02T07:54:40;99456.98;;;1.77;96.92
62864;BME280;48954;59.950;11.014;2024-03-02T07:57:06;99455.20;;;1.77;96.78
62864;BME280;48954;59.950;11.014;2024-03-02T07:59:37;99456.38;;;1.78;96.82
62864;BME280;48954;59.950;11.014;2024-03-02T08:02:07;99457.83;;;1.79;96.80
62864;BME280;48954;59.950;11.014;2024-03-02T08:04:35;99464.85;;;1.80;96.87
62864;BME280;48954;59.950;11.014;2024-03-02T08:07:10;99466.08;;;1.81;97.03
62864;BME280;48954;59.950;11.014;2024-03-02T08:09:37;99461.27;;;1.81;97.05
62864;BME280;48954;59.950;11.014;2024-03-02T08:12:07;99460.86;;;1.83;97.03
62864;BME280;48954;59.950;11.014;2024-03-02T08:14:34;99462.95;;;1.84;96.81
62864;BME280;48954;59.950;11.014;2024-03-02T08:17:02;99462.45;;;1.85;97.05
62864;BME280;48954;59.950;11.014;2024-03-02T08:19:28;99461.41;;;1.87;96.93
62864;BME280;48954;59.950;11.014;2024-03-02T08:21:57;99466.29;;;1.90;97.32
62864;BME280;48954;59.950;11.014;2024-03-02T08:24:26;99460.49;;;1.92;97.09
62864;BME280;48954;59.950;11.014;2024-03-02T08:26:53;99459.79;;;1.94;97.24
62864;BME280;48954;59.950;11.014;2024-03-02T08:29:24;99461.25;;;1.96;97.38
62864;BME280;48954;59.950;11.014;2024-03-02T08:31:59;99459.52;;;1.97;97.32
62864;BME280;48954;59.950;11.014;2024-03-02T08:34:29;99462.72;;;1.98;97.36
62864;BME280;48954;59.950;11.014;2024-03-02T08:36:58;99464.96;;;1.99;97.42
62864;BME280;48954;59.950;11.014;2024-03-02T08:39:24;99459.96;;;1.99;97.33
62864;BME280;48954;59.950;11.014;2024-03-02T08:41:52;99459.84;;;2.00;97.15
62864;BME280;48954;59.950;11.014;2024-03-02T08:44:30;99457.62;;;2.02;97.17
62864;BME280;48954;59.950;11.014;2024-03-02T08:47:00;99453.64;;;2.03;97.34
62864;BME280;48954;59.950;11.014;2024-03-02T08:49:35;99451.00;;;2.04;97.19
62864;BME280;48954;59.950;11.014;2024-03-02T08:52:04;99448.36;;;2.06;97.26
62864;BME280;48954;59.950;11.014;2024-03-02T08:54:35;99447.96;;;2.07;97.13
62864;BME280;48954;59.950;11.014;2024-03-02T08:57:02;99446.90;;;2.08;97.09
62864;BME280;48954;59.950;11.014;2024-03-02T08:59:32;99446.92;;;2.08;97.04
62864;BME280;48954;59.950;11.014;2024-03-02T09:02:01;99444.32;;;2.10;97.28
62864;BME280;48954;59.950;11.014;2024-03-02T09:04:28;99444.17;;;2.12;97.41
62864;BME280;48954;59.950;11.014;2024-03-02T09:06:56;99448.45;;;2.15;97.20
62864;BME280;48954;59.950;11.014;2024-03-02T09:09:24;99446.87;;;2.18;97.15
62864;BME280;48954;59.950;11.014;2024-03-02T09:11:50;99449.69;;;2.20;97.50
62864;BME280;48954;59.950;11.014;2024-03-02T09:14:16;99450.26;;;2.22;97.21
62864;BME280;48954;59.950;11.014;2024-03-02T09:16:57;99456.16;;;2.23;97.09
62864;BME280;48954;59.950;11.014;2024-03-02T09:19:23;99451.89;;;2.24;97.39
62864;BME280;48954;59.950;11.014;2024-03-02T09:21:49;99454.33;;;2.24;97.42
62864;BME280;48954;59.950;11.014;2024-03-02T09:24:16;99448.84;;;2.25;97.36
62864;BME280;48954;59.950;11.014;2024-03-02T09:26:42;99452.06;;;2.26;97.30
62864;BME280;48954;59.950;11.014;2024-03-02T09:29:09;99447.98;;;2.26;97.01
62864;BME280;48954;59.950;11.014;2024-03-02T09:31:40;99452.95;;;2.28;97.12
62864;BME280;48954;59.950;11.014;2024-03-02T09:34:06;99452.60;;;2.29;97.20
62864;BME280;48954;59.950;11.014;2024-03-02T09:36:35;99451.77;;;2.29;97.08
62864;BME280;48954;59.950;11.014;2024-03-02T09:39:01;99455.19;;;2.29;97.23
62864;BME280;48954;59.950;11.014;2024-03-02T09:41:28;99456.48;;;2.30;97.30
62864;BME280;48954;59.950;11.014;2024-03-02T09:43:54;99454.78;;;2.30;97.18
62864;BME280;48954;59.950;11.014;2024-03-02T09:46:21;99454.17;;;2.30;97.03
62864;BME280;48954;59.950;11.014;2024-03-02T09:48:47;99456.08;;;2.33;97.31
62864;BME280;48954;59.950;11.014;2024-03-02T09:51:19;99452.20;;;2.35;97.27
62864;BME280;48954;59.950;11.014;2024-03-02T09:53:47;99446.75;;;2.36;96.97
62864;BME280;48954;59.950;11.014;2024-03-02T09:56:14;99442.77;;;2.37;97.00
62864;BME280;48954;59.950;11.014;2024-03-02T09:58:41;99442.25;;;2.38;97.09
62864;BME280;48954;59.950;11.014;2024-03-02T10:01:08;99448.31;;;2.39;97.09
62864;BME280;48954;59.950;11.014;2024-03-02T10:03:39;99447.38;;;2.41;97.20
62864;BME280;48954;59.950;11.014;2024-03-02T10:06:21;99447.39;;;2.41;96.90
62864;BME280;48954;59.950;11.014;2024-03-02T10:08:50;99445.25;;;2.41;96.74
62864;BME280;48954;59.950;11.014;2024-03-02T10:11:28;99444.98;;;2.42;96.80
62864;BME280;48954;59.950;11.014;2024-03-02T10:14:12;99442.71;;;2.43;97.12
62864;BME280;48954;59.950;11.014;2024-03-02T10:16:44;99443.07;;;2.44;96.98
62864;BME280;48954;59.950;11.014;2024-03-02T10:19:24;99440.27;;;2.45;96.92
62864;BME280;48954;59.950;11.014;2024-03-02T10:21:52;99440.16;;;2.47;97.10
62864;BME280;48954;59.950;11.014;2024-03-02T10:24:23;99442.49;;;2.47;96.72
62864;BME280;48954;59.950;11.014;2024-03-02T10:26:50;99434.19;;;2.47;96.84
62864;BME280;48954;59.950;11.014;2024-03-02T10:29:17;99431.79;;;2.47;96.93
62864;BME280;48954;59.950;11.014;2024-03-02T10:31:54;99430.78;;;2.46;96.66
62864;BME280;48954;59.950;11.014;2024-03-02T10:34:35;99429.61;;;2.46;96.80
62864;BME280;48954;59.950;11.014;2024-03-02T10:37:18;99427.42;;;2.46;96.87
62864;BME280;48954;59.950;11.014;2024-03-02T10:39:52;99427.95;;;2.48;96.90
62864;BME280;48954;59.950;11.014;2024-03-02T10:42:19;99428.09;;;2.49;97.06
62864;BME280;48954;59.950;11.014;2024-03-02T10:45:00;99424.08;;;2.51;96.81
62864;BME280;48954;59.950;11.014;2024-03-02T10:47:56;99427.24;;;2.52;96.89
62864;BME280;48954;59.950;11.014;2024-03-02T10:50:57;99426.23;;;2.54;96.80
62864;BME280;48954;59.950;11.014;2024-03-02T10:53:28;99424.19;;;2.53;96.82
62864;BME280;48954;59.950;11.014;2024-03-02T10:55:57;99423.48;;;2.53;96.78
62864;BME280;48954;59.950;11.014;2024-03-02T10:58:43;99420.11;;;2.55;96.99
62864;BME280;48954;59.950;11.014;2024-03-02T11:01:29;99422.70;;;2.56;96.87
62864;BME280;48954;59.950;11.014;2024-03-02T11:04:12;99419.52;;;2.58;96.99
62864;BME280;48954;59.950;11.014;2024-03-02T11:06:48;99422.48;;;2.58;96.78
62864;BME280;48954;59.950;11.014;2024-03-02T11:09:22;99419.78;;;2.58;96.89
62864;BME280;48954;59.950;11.014;2024-03-02T11:12:23;99417.52;;;2.59;96.69
62864;BME280;48954;59.950;11.014;2024-03-02T11:14:53;99413.23;;;2.59;96.73
62864;BME280;48954;59.950;11.014;2024-03-02T11:17:23;99414.58;;;2.60;96.68
62864;BME280;48954;59.950;11.014;2024-03-02T11:19:54;99414.73;;;2.60;96.93
62864;BME280;48954;59.950;11.014;2024-03-02T11:22:21;99415.43;;;2.60;96.84
62864;BME280;48954;59.950;11.014;2024-03-02T11:24:51;99409.52;;;2.59;96.58
62864;BME280;48954;59.950;11.014;2024-03-02T11:33:04;99404.04;;;2.60;96.61
62864;BME280;48954;59.950;11.014;2024-03-02T11:35:31;99407.08;;;2.60;96.85
62864;BME280;48954;59.950;11.014;2024-03-02T11:37:57;99407.11;;;2.61;96.80
62864;BME280;48954;59.950;11.014;2024-03-02T11:40:27;99402.73;;;2.62;96.86
62864;BME280;48954;59.950;11.014;2024-03-02T11:43:08;99406.46;;;2.65;96.64
62864;BME280;48954;59.950;11.014;2024-03-02T11:45:36;99405.77;;;2.67;96.46
62864;BME280;48954;59.950;11.014;2024-03-02T11:48:06;99407.31;;;2.68;96.56
62864;BME280;48954;59.950;11.014;2024-03-02T11:50:47;99407.45;;;2.69;96.65
62864;BME280;48954;59.950;11.014;2024-03-02T11:53:28;99408.11;;;2.69;96.58
62864;BME280;48954;59.950;11.014;2024-03-02T11:56:11;99407.66;;;2.67;96.71
62864;BME280;48954;59.950;11.014;2024-03-02T11:58:40;99408.06;;;2.66;96.34
62864;BME280;48954;59.950;11.014;2024-03-02T12:01:15;99405.18;;;2.65;96.64
62864;BME280;48954;59.950;11.014;2024-03-02T12:04:15;99400.83;;;2.63;96.30
62864;BME280;48954;59.950;11.014;2024-03-02T12:07:00;99398.17;;;2.62;96.70
62864;BME280;48954;59.950;11.014;2024-03-02T12:09:28;99399.90;;;2.63;96.58
62864;BME280;48954;59.950;11.014;2024-03-02T12:12:13;99397.48;;;2.62;96.45
62864;BME280;48954;59.950;11.014;2024-03-02T12:14:57;99391.40;;;2.60;96.76
62864;BME280;48954;59.950;11.014;2024-03-02T12:17:29;99393.52;;;2.61;96.64
62864;BME280;48954;59.950;11.014;2024-03-02T12:20:11;99392.42;;;2.61;96.42
62864;BME280;48954;59.950;11.014;2024-03-02T12:22:40;99390.00;;;2.60;96.42
62864;BME280;48954;59.950;11.014;2024-03-02T12:25:22;99388.55;;;2.59;96.58
62864;BME280;48954;59.950;11.014;2024-03-02T12:28:00;99384.79;;;2.56;96.43
62864;BME280;48954;59.950;11.014;2024-03-02T12:30:41;99387.13;;;2.57;96.73
62864;BME280;48954;59.950;11.014;2024-03-02T12:33:22;99381.73;;;2.57;96.79
62864;BME280;48954;59.950;11.014;2024-03-02T12:36:03;99379.05;;;2.58;96.42
62864;BME280;48954;59.950;11.014;2024-03-02T12:38:33;99383.57;;;2.60;96.55
62864;BME280;48954;59.950;11.014;2024-03-02T12:41:04;99382.20;;;2.61;96.48
62864;BME280;48954;59.950;11.014;2024-03-02T12:43:44;99381.46;;;2.62;96.65
62864;BME280;48954;59.950;11.014;2024-03-02T12:46:26;99381.79;;;2.62;96.59
62864;BME280;48954;59.950;11.014;2024-03-02T12:48:53;99381.73;;;2.64;96.50
62864;BME280;48954;59.950;11.014;2024-03-02T12:51:22;99377.59;;;2.65;96.40
62864;BME280;48954;59.950;11.014;2024-03-02T12:53:55;99380.43;;;2.66;96.63
62864;BME280;48954;59.950;11.014;2024-03-02T12:56:24;99379.35;;;2.66;96.61
62864;BME280;48954;59.950;11.014;2024-03-02T12:59:00;99376.58;;;2.66;96.58
62864;BME280;48954;59.950;11.014;2024-03-02T13:01:30;99374.52;;;2.66;96.59
62864;BME280;48954;59.950;11.014;2024-03-02T13:04:06;99380.27;;;2.66;96.74
62864;BME280;48954;59.950;11.014;2024-03-02T13:06:34;99375.88;;;2.66;96.54
62864;BME280;48954;59.950;11.014;2024-03-02T13:09:02;99374.56;;;2.66;96.89
62864;BME280;48954;59.950;11.014;2024-03-02T13:11:31;99373.77;;;2.68;96.60
62864;BME280;48954;59.950;11.014;2024-03-02T13:14:00;99368.74;;;2.68;96.59
62864;BME280;48954;59.950;11.014;2024-03-02T13:16:27;99372.14;;;2.69;96.52
62864;BME280;48954;59.950;11.014;2024-03-02T13:18:58;99375.25;;;2.69;96.64
62864;BME280;48954;59.950;11.014;2024-03-02T13:21:28;99377.60;;;2.68;96.66
62864;BME280;48954;59.950;11.014;2024-03-02T13:23:59;99377.50;;;2.68;96.57
62864;BME280;48954;59.950;11.014;2024-03-02T13:26:33;99375.36;;;2.67;96.50
62864;BME280;48954;59.950;11.014;2024-03-02T13:29:01;99377.40;;;2.66;96.42
62864;BME280;48954;59.950;11.014;2024-03-02T13:31:28;99378.39;;;2.65;96.40
62864;BME280;48954;59.950;11.014;2024-03-02T13:33:58;99379.80;;;2.66;96.51
62864;BME280;48954;59.950;11.014;2024-03-02T13:36:27;99380.21;;;2.66;96.64
62864;BME280;48954;59.950;11.014;2024-03-02T13:38:53;99381.34;;;2.67;96.65